createdAt,value
2022-12-09T00:01:23.708Z,5.50
2022-12-09T00:03:51.923Z,5.50
2022-12-09T00:06:27.640Z,5.50
2022-12-09T00:08:59.115Z,5.60
2022-12-09T00:11:26.804Z,5.60
2022-12-09T00:13:56.265Z,5.70
2022-12-09T00:16:24.860Z,5.70
2022-12-09T00:18:52.929Z,5.70
2022-12-09T00:21:33.801Z,5.70
2022-12-09T00:24:06.344Z,5.70
2022-12-09T00:26:35.398Z,5.70
2022-12-09T00:29:03.585Z,5.70
2022-12-09T00:31:33.434Z,5.80
2022-12-09T00:34:07.406Z,5.80
2022-12-09T00:36:35.389Z,5.70
2022-12-09T00:39:03.179Z,5.70
2022-12-09T00:41:30.995Z,5.60
2022-12-09T00:43:58.843Z,5.60
2022-12-09T00:46:26.979Z,5.60
2022-12-09T00:48:54.851Z,5.50
2022-12-09T00:51:24.726Z,5.50
2022-12-09T00:53:54.794Z,5.50
2022-12-09T00:56:28.708Z,5.40
2022-12-09T00:58:57.356Z,5.40
2022-12-09T01:01:25.245Z,5.30
2022-12-09T01:03:52.707Z,5.20
2022-12-09T01:06:23.240Z,5.20
2022-12-09T01:08:51.389Z,5.10
2022-12-09T01:11:24.413Z,5.00
2022-12-09T01:13:53.147Z,4.90
2022-12-09T01:16:23.765Z,4.90
2022-12-09T01:18:52.780Z,4.90
2022-12-09T01:21:25.149Z,4.90
2022-12-09T01:23:57.482Z,4.80
2022-12-09T01:26:25.273Z,4.80
2022-12-09T01:28:55.353Z,4.70
2022-12-09T01:31:25.049Z,4.60
2022-12-09T01:33:54.804Z,4.40
2022-12-09T01:36:24.691Z,4.40
2022-12-09T01:38:52.623Z,4.30
2022-12-09T01:41:23.548Z,4.30
2022-12-09T01:44:18.187Z,4.20
2022-12-09T01:46:46.160Z,4.10
2022-12-09T01:49:32.352Z,4.10
2022-12-09T01:52:22.663Z,4.10
2022-12-09T01:54:53.434Z,4.00
2022-12-09T01:57:20.850Z,3.90
2022-12-09T01:59:48.476Z,3.90
2022-12-09T02:02:18.990Z,3.90
2022-12-09T02:04:49.851Z,3.90
2022-12-09T02:07:18.713Z,3.90
2022-12-09T02:09:53.215Z,3.70
2022-12-09T02:12:31.873Z,3.60
2022-12-09T02:15:05.424Z,3.40
2022-12-09T02:17:44.068Z,3.40
2022-12-09T02:20:35.655Z,3.50
2022-12-09T02:23:18.791Z,3.60
2022-12-09T02:25:55.209Z,3.70
2022-12-09T02:28:47.726Z,3.40
2022-12-09T02:32:15.691Z,3.10
2022-12-09T02:35:00.877Z,3.10
2022-12-09T02:37:36.145Z,3.20
2022-12-09T02:40:15.364Z,3.20
2022-12-09T02:42:44.815Z,3.10
2022-12-09T02:45:15.256Z,2.90
2022-12-09T02:47:49.705Z,2.90
2022-12-09T02:50:25.570Z,2.90
2022-12-09T02:52:55.703Z,2.90
2022-12-09T02:55:26.235Z,2.90
2022-12-09T02:57:59.988Z,2.70
2022-12-09T03:00:28.394Z,2.70
2022-12-09T03:02:59.666Z,2.60
2022-12-09T03:05:34.178Z,2.60
2022-12-09T03:08:20.583Z,2.60
2022-12-09T03:11:07.880Z,2.70
2022-12-09T03:14:00.155Z,2.60
2022-12-09T03:16:37.858Z,2.70
2022-12-09T03:19:15.365Z,2.70
2022-12-09T03:21:47.876Z,2.60
2022-12-09T03:24:20.969Z,2.70
2022-12-09T03:26:51.631Z,2.70
2022-12-09T03:29:23.304Z,2.80
2022-12-09T03:31:58.670Z,2.80
2022-12-09T03:34:35.746Z,2.80
2022-12-09T03:37:05.502Z,2.70
2022-12-09T03:39:40.118Z,2.60
2022-12-09T03:42:23.987Z,2.60
2022-12-09T03:44:57.317Z,2.60
2022-12-09T03:47:27.970Z,2.60
2022-12-09T03:49:55.939Z,2.70
2022-12-09T03:52:28.792Z,2.70
2022-12-09T03:55:01.697Z,2.70
2022-12-09T03:57:30.325Z,2.60
2022-12-09T04:00:02.336Z,2.60
2022-12-09T04:02:30.209Z,2.60
2022-12-09T04:04:57.741Z,2.60
2022-12-09T04:07:25.680Z,2.60
2022-12-09T04:09:52.931Z,2.60
2022-12-09T04:12:23.076Z,2.50
2022-12-09T04:14:50.686Z,2.50
2022-12-09T04:17:18.154Z,2.50
2022-12-09T04:19:45.614Z,2.30
2022-12-09T04:22:13.429Z,2.20
2022-12-09T04:24:43.465Z,2.10
2022-12-09T04:27:13.906Z,2.10
2022-12-09T04:29:43.551Z,2.00
2022-12-09T04:32:11.797Z,2.10
2022-12-09T04:34:42.004Z,2.10
2022-12-09T04:37:09.978Z,2.00
2022-12-09T04:39:38.217Z,1.90
2022-12-09T04:42:07.608Z,1.80
2022-12-09T04:44:37.895Z,1.70
2022-12-09T04:47:05.785Z,1.90
2022-12-09T04:49:33.568Z,1.90
2022-12-09T04:52:03.065Z,2.10
2022-12-09T04:54:33.954Z,2.20
2022-12-09T04:57:01.232Z,2.20
2022-12-09T04:59:33.069Z,2.40
2022-12-09T05:02:00.908Z,2.60
2022-12-09T05:04:28.309Z,2.80
2022-12-09T05:06:58.677Z,2.90
2022-12-09T05:09:31.075Z,3.00
2022-12-09T05:11:58.697Z,3.00
2022-12-09T05:14:26.396Z,3.10
2022-12-09T05:16:58.306Z,3.00
2022-12-09T05:19:27.961Z,2.90
2022-12-09T05:21:57.556Z,3.10
2022-12-09T05:24:24.976Z,3.20
2022-12-09T05:26:52.488Z,3.30
2022-12-09T05:29:22.978Z,3.40
2022-12-09T05:31:51.679Z,3.60
2022-12-09T05:34:19.789Z,3.70
2022-12-09T05:36:49.750Z,3.80
2022-12-09T05:39:17.099Z,3.80
2022-12-09T05:41:46.657Z,3.90
2022-12-09T05:44:17.111Z,3.90
2022-12-09T05:46:44.808Z,3.90
2022-12-09T05:49:14.509Z,4.00
2022-12-09T05:51:42.021Z,4.00
2022-12-09T05:54:11.164Z,4.20
2022-12-09T05:56:44.449Z,4.20
2022-12-09T05:59:15.193Z,4.10
2022-12-09T06:01:42.730Z,4.20
2022-12-09T06:04:10.348Z,4.20
2022-12-09T06:06:37.955Z,4.00
2022-12-09T06:09:11.601Z,4.00
2022-12-09T06:11:43.074Z,4.10
2022-12-09T06:14:12.656Z,4.20
2022-12-09T06:16:40.609Z,4.30
2022-12-09T06:19:12.088Z,4.30
2022-12-09T06:21:40.937Z,4.30
2022-12-09T06:24:10.563Z,4.30
2022-12-09T06:26:38.208Z,4.20
2022-12-09T06:29:09.366Z,4.10
2022-12-09T06:31:37.245Z,4.10
2022-12-09T06:34:05.394Z,4.10
2022-12-09T06:36:32.860Z,4.10
2022-12-09T06:39:10.172Z,4.20
2022-12-09T06:41:43.033Z,4.20
2022-12-09T06:44:17.143Z,4.40
2022-12-09T06:46:52.944Z,4.50
2022-12-09T06:49:23.196Z,4.40
2022-12-09T06:51:51.308Z,4.20
2022-12-09T06:54:21.809Z,4.30
2022-12-09T06:56:49.691Z,4.40
2022-12-09T06:59:17.581Z,4.50
2022-12-09T07:01:45.852Z,4.60
2022-12-09T07:04:14.818Z,4.60
2022-12-09T07:06:47.931Z,4.70
2022-12-09T07:09:23.765Z,4.70
2022-12-09T07:11:53.545Z,4.80
2022-12-09T07:14:20.909Z,4.80
2022-12-09T07:16:49.013Z,4.80
2022-12-09T07:19:22.351Z,4.80
2022-12-09T07:21:50.913Z,4.70
2022-12-09T07:24:20.275Z,4.70
2022-12-09T07:26:48.525Z,4.70
2022-12-09T07:29:17.149Z,4.70
2022-12-09T07:31:45.344Z,4.50
2022-12-09T07:34:15.241Z,4.40
2022-12-09T07:36:42.633Z,4.40
2022-12-09T07:39:16.336Z,4.50
2022-12-09T07:41:48.419Z,4.60
2022-12-09T07:44:18.090Z,4.70
2022-12-09T07:46:49.406Z,4.70
2022-12-09T07:49:16.968Z,4.60
2022-12-09T07:51:45.245Z,4.50
2022-12-09T07:54:17.700Z,4.20
2022-12-09T07:56:48.108Z,3.90
2022-12-09T07:59:17.759Z,3.80
2022-12-09T08:01:47.994Z,4.00
2022-12-09T08:04:16.321Z,4.00
2022-12-09T08:06:46.303Z,3.70
2022-12-09T08:09:14.826Z,3.80
2022-12-09T08:11:42.818Z,3.90
2022-12-09T08:14:13.085Z,3.80
2022-12-09T08:16:42.441Z,3.70
2022-12-09T08:19:11.211Z,4.00
2022-12-09T08:21:39.768Z,3.70
2022-12-09T08:24:13.723Z,3.50
2022-12-09T08:26:41.907Z,3.60
2022-12-09T08:29:11.108Z,3.50
2022-12-09T08:31:42.381Z,3.60
2022-12-09T08:34:13.440Z,3.70
2022-12-09T08:36:44.414Z,3.80
2022-12-09T08:39:13.999Z,3.60
2022-12-09T08:41:46.128Z,3.70
2022-12-09T08:44:18.786Z,4.00
2022-12-09T08:46:49.317Z,3.80
2022-12-09T08:49:20.321Z,3.70
2022-12-09T08:51:49.372Z,3.90
2022-12-09T08:54:17.279Z,4.00
2022-12-09T08:56:49.396Z,3.80
2022-12-09T08:59:17.885Z,3.70
2022-12-09T09:01:50.403Z,3.90
2022-12-09T09:04:22.983Z,4.10
2022-12-09T09:06:51.761Z,4.30
2022-12-09T09:09:21.371Z,4.50
2022-12-09T09:11:54.019Z,4.50
2022-12-09T09:14:23.637Z,4.60
2022-12-09T09:16:51.060Z,4.70
2022-12-09T09:19:22.447Z,4.50
2022-12-09T09:21:55.359Z,4.40
2022-12-09T09:24:25.254Z,4.50
2022-12-09T09:26:56.238Z,4.70
2022-12-09T09:29:24.785Z,4.90
2022-12-09T09:31:56.348Z,5.10
2022-12-09T09:34:28.214Z,5.20
2022-12-09T09:36:56.541Z,5.20
2022-12-09T09:39:24.944Z,5.20
2022-12-09T09:42:04.602Z,5.20
2022-12-09T09:44:47.033Z,5.20
2022-12-09T09:47:38.708Z,5.20
2022-12-09T09:50:13.364Z,5.20
2022-12-09T09:52:44.697Z,5.30
2022-12-09T09:55:19.201Z,5.30
2022-12-09T09:57:56.270Z,5.40
2022-12-09T10:00:42.651Z,5.40
2022-12-09T10:03:38.382Z,5.40
2022-12-09T10:06:24.823Z,5.30
2022-12-09T10:09:03.747Z,4.90
2022-12-09T10:12:26.425Z,4.90
2022-12-09T10:15:10.896Z,5.20
2022-12-09T10:17:50.195Z,5.50
2022-12-09T10:20:23.421Z,5.70
2022-12-09T10:23:02.393Z,5.90
2022-12-09T10:25:37.762Z,5.90
2022-12-09T10:28:15.526Z,6.10
2022-12-09T10:30:45.921Z,6.20
2022-12-09T10:33:16.654Z,6.20
2022-12-09T10:35:49.694Z,6.20
2022-12-09T10:38:21.003Z,6.20
2022-12-09T10:41:06.473Z,6.30
2022-12-09T10:43:44.701Z,6.30
2022-12-09T10:46:24.725Z,6.20
2022-12-09T10:49:01.590Z,6.10
2022-12-09T10:51:36.650Z,5.90
2022-12-09T10:54:09.823Z,5.60
2022-12-09T10:57:00.246Z,5.50
2022-12-09T10:59:32.768Z,5.60
2022-12-09T11:02:22.208Z,5.60
2022-12-09T11:04:53.582Z,5.70
2022-12-09T11:07:27.250Z,5.70
2022-12-09T11:09:58.082Z,5.70
2022-12-09T11:12:33.385Z,5.70
2022-12-09T11:15:35.376Z,5.70
2022-12-09T11:18:15.940Z,5.80
2022-12-09T11:20:54.398Z,6.00
2022-12-09T11:23:22.245Z,6.10
2022-12-09T11:25:59.567Z,6.10
2022-12-09T11:28:35.950Z,6.00
2022-12-09T11:31:30.286Z,5.90
2022-12-09T11:34:05.759Z,5.60
2022-12-09T11:36:37.153Z,5.60
2022-12-09T11:39:16.353Z,5.80
2022-12-09T11:42:20.744Z,5.80
2022-12-09T11:45:07.232Z,5.90
2022-12-09T11:50:31.562Z,5.90
2022-12-09T11:53:31.120Z,5.90
2022-12-09T11:56:18.547Z,5.80
2022-12-09T11:58:55.938Z,5.60
2022-12-09T12:01:53.349Z,5.50
2022-12-09T12:04:32.864Z,5.40
2022-12-09T12:07:09.232Z,5.50
2022-12-09T12:09:43.243Z,5.70
2022-12-09T12:12:42.957Z,5.80
2022-12-09T12:15:21.853Z,5.50
2022-12-09T12:17:56.622Z,5.50
2022-12-09T12:20:43.855Z,5.30
2022-12-09T12:23:46.455Z,5.30
2022-12-09T12:26:22.445Z,4.90
2022-12-09T12:29:05.530Z,4.60
2022-12-09T12:32:05.437Z,4.60
2022-12-09T12:35:02.954Z,4.80
2022-12-09T12:37:56.547Z,5.00
2022-12-09T12:40:38.238Z,5.30
2022-12-09T12:43:39.168Z,5.40
2022-12-09T12:46:20.030Z,5.30
2022-12-09T12:49:15.708Z,5.50
2022-12-09T12:51:53.983Z,5.40
2022-12-09T12:54:45.668Z,5.00
2022-12-09T12:57:44.900Z,5.00
2022-12-09T13:00:24.066Z,4.60
2022-12-09T13:03:31.255Z,4.90
2022-12-09T13:06:02.069Z,5.10
2022-12-09T13:08:44.735Z,5.40
2022-12-09T13:11:30.922Z,5.40
2022-12-09T13:14:05.136Z,5.50
2022-12-09T13:16:39.185Z,5.40
2022-12-09T13:19:40.650Z,5.50
2022-12-09T13:22:16.683Z,5.60
2022-12-09T13:25:00.177Z,5.60
2022-12-09T13:27:44.800Z,5.20
2022-12-09T13:30:36.622Z,4.90
2022-12-09T13:33:25.057Z,5.10
2022-12-09T13:36:24.238Z,5.20
2022-12-09T13:38:52.037Z,4.80
2022-12-09T13:41:31.300Z,4.70
2022-12-09T13:44:14.466Z,4.50
2022-12-09T13:46:42.978Z,4.50
2022-12-09T13:49:26.728Z,4.70
2022-12-09T13:51:58.233Z,5.00
2022-12-09T13:54:29.342Z,4.90
2022-12-09T13:57:29.097Z,4.70
2022-12-09T14:00:06.089Z,4.80
2022-12-09T14:02:50.922Z,5.10
2022-12-09T14:05:27.797Z,5.20
2022-12-09T14:08:19.800Z,5.20
2022-12-09T14:10:52.168Z,5.20
2022-12-09T14:13:35.240Z,5.20
2022-12-09T14:16:31.097Z,5.10
2022-12-09T14:19:18.741Z,5.10
2022-12-09T14:22:18.601Z,5.30
2022-12-09T14:24:49.475Z,5.50
2022-12-09T14:27:27.374Z,5.60
2022-12-09T14:30:21.686Z,5.60
2022-12-09T14:32:59.028Z,5.70
2022-12-09T14:35:48.619Z,5.80
2022-12-09T14:41:58.597Z,5.90
2022-12-09T14:44:48.760Z,6.00
2022-12-09T14:47:29.754Z,6.00
2022-12-09T14:50:09.386Z,5.90
2022-12-09T14:52:39.842Z,5.90
2022-12-09T14:55:14.394Z,5.90
2022-12-09T14:57:46.833Z,5.90
2022-12-09T15:00:40.819Z,5.90
2022-12-09T15:03:33.085Z,5.70
2022-12-09T15:06:05.976Z,5.60
2022-12-09T15:08:38.543Z,5.60
2022-12-09T15:11:22.103Z,5.70
2022-12-09T15:13:53.881Z,5.80
2022-12-09T15:16:24.345Z,5.60
2022-12-09T15:18:56.404Z,5.60
2022-12-09T15:21:29.359Z,5.70
2022-12-09T15:24:01.451Z,5.70
2022-12-09T15:26:32.950Z,5.60
2022-12-09T15:29:01.343Z,5.50
2022-12-09T15:31:34.962Z,5.50
2022-12-09T15:34:13.911Z,5.50
2022-12-09T15:36:48.755Z,5.50
2022-12-09T15:39:42.321Z,5.50
2022-12-09T15:42:17.056Z,5.50
2022-12-09T15:44:49.051Z,5.50
2022-12-09T15:47:31.633Z,5.60
2022-12-09T15:50:28.864Z,5.70
2022-12-09T15:53:24.452Z,5.80
2022-12-09T15:56:12.119Z,5.80
2022-12-09T15:58:44.572Z,5.70
2022-12-09T16:01:22.673Z,5.80
2022-12-09T16:03:51.493Z,5.80
2022-12-09T16:06:30.013Z,5.80
2022-12-09T16:08:57.597Z,5.90
2022-12-09T16:11:45.706Z,5.80
2022-12-09T16:14:17.149Z,5.70
2022-12-09T16:16:48.496Z,5.80
2022-12-09T16:19:36.523Z,5.70
2022-12-09T16:22:06.946Z,5.70
2022-12-09T16:25:06.005Z,5.80
2022-12-09T16:27:31.214Z,5.70
2022-12-09T16:30:15.810Z,5.60
2022-12-09T16:32:50.874Z,5.50
2022-12-09T16:35:25.340Z,5.20
2022-12-09T16:37:58.852Z,5.00
2022-12-09T16:40:26.592Z,4.90
2022-12-09T16:43:15.349Z,4.90
2022-12-09T16:45:53.228Z,4.90
2022-12-09T16:48:22.526Z,5.10
2022-12-09T16:50:51.619Z,5.10
2022-12-09T16:53:22.634Z,5.30
2022-12-09T16:56:02.291Z,5.30
2022-12-09T16:58:32.053Z,5.50
2022-12-09T17:01:01.091Z,5.50
2022-12-09T17:03:37.264Z,5.50
2022-12-09T17:06:05.162Z,5.40
2022-12-09T17:08:35.165Z,5.40
2022-12-09T17:11:02.941Z,5.40
2022-12-09T17:13:30.520Z,5.50
2022-12-09T17:16:01.791Z,5.50
2022-12-09T17:18:29.567Z,5.50
2022-12-09T17:21:08.213Z,5.60
2022-12-09T17:23:40.237Z,5.50
2022-12-09T17:26:12.207Z,5.60
2022-12-09T17:28:42.931Z,5.60
2022-12-09T17:31:15.834Z,5.50
2022-12-09T17:33:48.863Z,5.60
2022-12-09T17:36:19.094Z,5.50
2022-12-09T17:38:47.104Z,5.40
2022-12-09T17:41:19.334Z,5.30
2022-12-09T17:43:49.445Z,5.20
2022-12-09T17:46:17.306Z,5.20
2022-12-09T17:48:44.719Z,5.10
2022-12-09T17:51:21.703Z,5.10
2022-12-09T17:53:52.023Z,4.90
2022-12-09T17:56:21.821Z,4.80
2022-12-09T17:59:00.848Z,4.70
2022-12-09T18:01:30.708Z,4.50
2022-12-09T18:04:07.692Z,4.20
2022-12-09T18:06:43.894Z,4.20
2022-12-09T18:09:14.204Z,4.20
2022-12-09T18:11:42.255Z,4.20
2022-12-09T18:14:14.575Z,4.20
2022-12-09T18:16:46.370Z,4.20
2022-12-09T18:19:16.577Z,4.30
2022-12-09T18:21:45.302Z,4.40
2022-12-09T18:24:14.982Z,4.50
2022-12-09T18:26:43.054Z,4.50
2022-12-09T18:29:12.095Z,4.50
2022-12-09T18:31:40.668Z,4.70
2022-12-09T18:34:08.348Z,4.70
2022-12-09T18:36:36.087Z,4.70
2022-12-09T18:39:06.997Z,4.70
2022-12-09T18:41:34.940Z,4.70
2022-12-09T18:44:05.266Z,4.70
2022-12-09T18:46:37.931Z,4.60
2022-12-09T18:49:19.186Z,4.70
2022-12-09T18:51:48.254Z,4.70
2022-12-09T18:54:22.880Z,4.70
2022-12-09T18:56:51.205Z,4.50
2022-12-09T18:59:19.788Z,4.50
2022-12-09T19:01:48.424Z,4.60
2022-12-09T19:04:25.453Z,4.70
2022-12-09T19:06:55.742Z,4.80
2022-12-09T19:09:26.662Z,4.60
2022-12-09T19:11:58.160Z,4.60
2022-12-09T19:14:29.315Z,4.70
2022-12-09T19:16:59.853Z,4.80
2022-12-09T19:19:29.926Z,4.60
2022-12-09T19:21:57.950Z,4.50
2022-12-09T19:24:29.954Z,4.50
2022-12-09T19:26:57.847Z,4.50
2022-12-09T19:29:28.408Z,4.30
2022-12-09T19:31:58.700Z,4.30
2022-12-09T19:34:30.441Z,4.10
2022-12-09T19:37:02.430Z,4.10
2022-12-09T19:39:31.482Z,4.30
2022-12-09T19:41:59.685Z,4.40
2022-12-09T19:47:21.809Z,4.40
2022-12-09T19:49:54.004Z,4.30
2022-12-09T19:52:26.520Z,4.30
2022-12-09T19:54:54.228Z,4.20
2022-12-09T19:57:22.411Z,4.20
2022-12-09T19:59:49.650Z,4.10
2022-12-09T20:02:19.082Z,4.20
2022-12-09T20:04:49.680Z,4.20
2022-12-09T20:07:18.357Z,4.40
2022-12-09T20:09:45.878Z,4.40
2022-12-09T20:12:15.319Z,4.50
2022-12-09T20:14:43.154Z,4.30
2022-12-09T20:17:10.691Z,4.30
2022-12-09T20:19:38.510Z,4.40
2022-12-09T20:22:06.316Z,4.30
2022-12-09T20:24:33.981Z,4.30
2022-12-09T20:27:01.348Z,4.10
2022-12-09T20:29:37.633Z,4.20
2022-12-09T20:32:07.973Z,4.20
2022-12-09T20:34:35.904Z,4.10
2022-12-09T20:37:03.379Z,4.00
2022-12-09T20:39:30.690Z,3.80
2022-12-09T20:41:59.308Z,3.90
2022-12-09T20:44:32.487Z,3.80
2022-12-09T20:46:59.787Z,3.80
2022-12-09T20:49:27.746Z,3.50
2022-12-09T20:51:55.821Z,3.30
2022-12-09T20:54:23.960Z,3.30
2022-12-09T20:56:52.002Z,3.40
2022-12-09T20:59:19.272Z,3.50
2022-12-09T21:01:49.480Z,3.60
2022-12-09T21:04:19.406Z,3.60
2022-12-09T21:06:47.188Z,3.50
2022-12-09T21:09:24.746Z,3.60
2022-12-09T21:11:55.587Z,3.50
2022-12-09T21:14:25.721Z,3.40
2022-12-09T21:16:58.549Z,3.50
2022-12-09T21:19:29.973Z,3.60
2022-12-09T21:21:59.427Z,3.80
2022-12-09T21:24:27.204Z,3.80
2022-12-09T21:26:55.991Z,3.60
2022-12-09T21:29:31.973Z,3.60
2022-12-09T21:32:01.034Z,3.50
2022-12-09T21:34:28.821Z,3.60
2022-12-09T21:36:56.118Z,3.70
2022-12-09T21:39:23.746Z,3.70
2022-12-09T21:41:51.459Z,3.60
2022-12-09T21:44:19.310Z,3.70
2022-12-09T21:46:47.094Z,3.70
2022-12-09T21:49:14.765Z,3.60
2022-12-09T21:51:42.373Z,3.60
2022-12-09T21:54:13.744Z,3.70
2022-12-09T21:56:41.097Z,3.70
2022-12-09T21:59:10.320Z,3.70
2022-12-09T22:01:40.731Z,3.60
2022-12-09T22:04:11.598Z,3.70
2022-12-09T22:06:41.921Z,3.80
2022-12-09T22:09:10.850Z,3.80
2022-12-09T22:11:39.349Z,3.80
2022-12-09T22:14:08.682Z,3.80
2022-12-09T22:16:41.470Z,3.70
2022-12-09T22:19:13.031Z,3.60
2022-12-09T22:21:42.465Z,3.50
2022-12-09T22:24:16.356Z,3.60
2022-12-09T22:26:46.792Z,3.50
2022-12-09T22:29:17.698Z,3.40
2022-12-09T22:31:47.697Z,3.20
2022-12-09T22:34:22.565Z,3.30
2022-12-09T22:36:52.887Z,3.30
2022-12-09T22:39:24.531Z,3.40
2022-12-09T22:41:52.325Z,3.30
2022-12-09T22:44:22.455Z,3.50
2022-12-09T22:46:50.211Z,3.50
2022-12-09T22:49:18.462Z,3.50
2022-12-09T22:51:46.886Z,3.50
2022-12-09T22:54:17.169Z,3.40
2022-12-09T22:56:49.317Z,3.40
2022-12-09T22:59:17.711Z,3.30
2022-12-09T23:01:48.212Z,3.30
2022-12-09T23:04:18.511Z,3.20
2022-12-09T23:06:46.402Z,3.00
2022-12-09T23:09:21.228Z,3.20
2022-12-09T23:11:50.081Z,3.30
2022-12-09T23:14:18.005Z,3.40
2022-12-09T23:16:45.739Z,3.30
2022-12-09T23:19:15.428Z,3.20
2022-12-09T23:21:45.431Z,3.10
2022-12-09T23:24:24.062Z,3.20
2022-12-09T23:26:56.010Z,3.20
2022-12-09T23:29:23.467Z,3.10
2022-12-09T23:31:50.990Z,3.20
2022-12-09T23:34:19.523Z,3.30
2022-12-09T23:36:51.447Z,3.30
2022-12-09T23:39:19.738Z,3.40
2022-12-09T23:41:48.152Z,3.40
2022-12-09T23:44:18.189Z,3.20
2022-12-09T23:46:51.564Z,3.20
2022-12-09T23:49:18.829Z,3.20
2022-12-09T23:51:46.690Z,3.10
2022-12-09T23:54:18.864Z,3.10
2022-12-09T23:56:50.740Z,3.10
2022-12-09T23:59:21.319Z,2.80
